Terminal Aerodrome Forecast
Issued by NWS

Home | Current Version | Previous Version | Text Only | Print | Product List | Glossary On
Versions: 1 2 3 4 5 6 7 8 9 10 11 12 13 14 15 16
106
FTUS43 KSGF 221130 CCA
TAFBBG
TAF COR
KBBG 221130Z 2212/2312 09008KT 6SM -RA OVC020
      TEMPO 2212/2216 2SM -RA BR BKN004
     FM221800 04009KT 5SM -SHRA OVC010
     FM230000 03013KT 5SM -SHRA BKN009=

USA.gov is the U.S. government's official web portal to all federal, state and local government web resources and services.